Time;durP1;ratioP1;P1;durP2;ratioP2;P2;SDS_P1;SDS_P2;PMS_P1;PMS_P2;Temp;Humidity;BMP_temperature;BMP_pressure;BME280_temperature;BME280_humidity;BME280_pressure;Samples;Min_cycle;Max_cycle;Signal;HPM_P1;HPM_P2
2023/03/10 09:06:02;;;;;;;2.90;1.00;;;9.70;99.90;;;;;;4955000;23;20596;-78
2023/03/10 09:08:29;;;;;;;0.83;0.40;;;9.70;99.90;;;;;;4937016;29;20304;-76
2023/03/10 09:10:56;;;;;;;4.37;0.53;;;9.80;99.90;;;;;;4957810;28;20214;-83
2023/03/10 09:13:23;;;;;;;4.50;0.63;;;9.80;99.90;;;;;;4944440;29;20303;-85
2023/03/10 09:15:51;;;;;;;1.47;0.70;;;9.80;99.90;;;;;;4938914;29;20236;-84
2023/03/10 09:18:19;;;;;;;2.67;0.40;;;9.80;99.90;;;;;;4943273;29;20747;-79
2023/03/10 09:20:46;;;;;;;1.13;0.30;;;9.80;99.90;;;;;;4955665;29;20217;-76
2023/03/10 09:23:15;;;;;;;0.73;0.30;;;9.80;99.90;;;;;;4943475;28;20603;-76
2023/03/10 09:25:43;;;;;;;1.70;0.37;;;9.90;99.90;;;;;;4935854;29;20304;-75
2023/03/10 09:28:10;;;;;;;1.07;0.30;;;10.00;99.90;;;;;;4940091;29;20262;-73
2023/03/10 09:30:40;;;;;;;1.43;0.30;;;9.80;99.90;;;;;;4955870;29;20215;-72
2023/03/10 09:33:10;;;;;;;1.93;0.30;;;9.90;99.90;;;;;;4943365;28;20236;-80
2023/03/10 09:35:37;;;;;;;1.47;0.50;;;9.80;99.90;;;;;;4935943;29;20602;-74
2023/03/10 09:38:04;;;;;;;1.33;0.50;;;9.90;99.90;;;;;;4936423;29;20213;-74
2023/03/10 09:40:33;;;;;;;1.57;0.30;;;10.00;99.90;;;;;;4935853;29;20308;-79
2023/03/10 09:43:02;;;;;;;0.40;0.20;;;10.10;99.90;;;;;;4936044;29;20228;-76
2023/03/10 09:45:35;;;;;;;0.93;0.33;;;10.20;99.90;;;;;;4941842;29;20685;-79
2023/03/10 09:48:22;;;;;;;2.70;0.30;;;10.10;99.90;;;;;;4942981;29;20209;-76
2023/03/10 09:50:51;;;;;;;2.17;0.40;;;10.10;99.90;;;;;;4935667;29;20209;-76
2023/03/10 09:53:48;;;;;;;1.43;0.50;;;10.20;99.90;;;;;;4935715;29;20225;-76
2023/03/10 09:56:20;;;;;;;0.93;0.40;;;10.30;99.90;;;;;;4935557;29;20730;-75
2023/03/10 09:58:50;;;;;;;0.80;0.40;;;10.30;99.90;;;;;;4947842;29;20220;-76
2023/03/10 10:01:20;;;;;;;1.10;0.60;;;10.30;99.90;;;;;;4941051;29;20692;-74
2023/03/10 10:03:49;;;;;;;1.57;0.50;;;10.40;99.90;;;;;;4935178;29;20213;-80
2023/03/10 10:06:20;;;;;;;1.23;0.60;;;10.40;99.90;;;;;;4941683;29;20701;-77
2023/03/10 10:08:53;;;;;;;1.73;0.70;;;10.40;99.90;;;;;;4936284;29;20216;-77
2023/03/10 10:11:21;;;;;;;2.87;0.90;;;10.40;99.90;;;;;;4935210;29;20228;-77
2023/03/10 10:13:49;;;;;;;1.37;0.60;;;10.30;99.90;;;;;;4935316;29;20563;-79
2023/03/10 10:16:28;;;;;;;1.07;0.80;;;10.20;99.90;;;;;;4934706;29;20710;-76
2023/03/10 10:19:02;;;;;;;1.07;0.70;;;10.20;99.90;;;;;;4935371;29;20208;-76
2023/03/10 10:21:38;;;;;;;2.53;0.67;;;10.30;99.90;;;;;;4935290;29;20802;-79
2023/03/10 10:24:05;;;;;;;1.27;0.63;;;10.40;99.90;;;;;;4934994;29;20223;-75
2023/03/10 10:26:33;;;;;;;0.87;0.57;;;10.50;99.90;;;;;;4934819;29;20227;-81
2023/03/10 10:29:05;;;;;;;0.70;0.50;;;10.50;99.90;;;;;;4935364;29;20299;-77
2023/03/10 10:31:33;;;;;;;1.93;1.00;;;10.60;99.90;;;;;;4934320;29;20261;-80
2023/03/10 10:34:02;;;;;;;1.73;0.63;;;10.50;99.90;;;;;;4935290;29;20545;-75
2023/03/10 10:36:32;;;;;;;2.70;0.80;;;10.50;99.90;;;;;;4936027;29;20268;-76
2023/03/10 10:38:59;;;;;;;0.87;0.63;;;10.60;99.90;;;;;;4934904;29;20271;-80
2023/03/10 10:41:29;;;;;;;1.53;0.63;;;10.80;99.90;;;;;;4935754;29;20239;-76
2023/03/10 10:44:06;;;;;;;2.33;1.00;;;11.00;99.90;;;;;;4934752;29;20205;-77
2023/03/10 10:46:33;;;;;;;0.90;0.70;;;10.90;99.90;;;;;;4934294;29;20217;-80
2023/03/10 10:49:18;;;;;;;1.07;0.80;;;10.90;99.90;;;;;;4934529;29;20244;-74
2023/03/10 10:51:56;;;;;;;9.60;1.13;;;10.90;99.90;;;;;;4934573;29;20239;-79
2023/03/10 10:54:27;;;;;;;1.27;0.70;;;11.00;99.90;;;;;;4933638;29;20208;-75
2023/03/10 10:56:55;;;;;;;0.90;0.63;;;11.10;99.90;;;;;;4934203;29;20596;-77
2023/03/10 10:59:28;;;;;;;0.93;0.70;;;11.10;99.90;;;;;;4952617;29;20686;-79
2023/03/10 11:01:57;;;;;;;0.60;0.50;;;11.00;99.90;;;;;;4951393;28;20238;-78
2023/03/10 11:04:25;;;;;;;3.13;0.80;;;11.00;99.90;;;;;;4934081;29;20580;-80
2023/03/10 11:06:53;;;;;;;0.97;0.77;;;11.00;99.90;;;;;;4933752;29;20208;-79
2023/03/10 11:09:22;;;;;;;1.27;0.70;;;11.20;99.90;;;;;;4933969;29;20295;-75
2023/03/10 11:12:04;;;;;;;0.30;0.30;;;11.30;99.90;;;;;;4934273;29;20229;-77
2023/03/10 11:14:45;;;;;;;2.90;0.90;;;11.30;99.90;;;;;;4934074;29;20632;-80
2023/03/10 11:17:18;;;;;;;1.10;0.80;;;11.30;99.90;;;;;;4933294;29;20201;-75
2023/03/10 11:19:57;;;;;;;1.57;0.90;;;11.20;99.90;;;;;;4933998;29;20212;-77
2023/03/10 11:22:34;;;;;;;1.60;0.80;;;11.30;99.90;;;;;;4934318;29;20322;-77
2023/03/10 11:25:06;;;;;;;0.60;0.57;;;11.20;99.90;;;;;;4934441;29;20231;-76
2023/03/10 11:27:48;;;;;;;1.57;0.97;;;11.40;99.90;;;;;;4934510;29;20669;-78
2023/03/10 11:30:20;;;;;;;1.13;0.83;;;11.40;99.90;;;;;;4934061;29;20600;-77
2023/03/10 11:33:01;;;;;;;0.97;0.80;;;11.40;99.90;;;;;;4934149;29;20259;-77
2023/03/10 11:35:34;;;;;;;0.67;0.47;;;11.30;99.90;;;;;;4934083;29;20259;-77
2023/03/10 11:38:15;;;;;;;1.90;0.60;;;11.10;99.90;;;;;;4933902;29;20209;-77
2023/03/10 11:40:47;;;;;;;1.10;0.70;;;10.60;99.90;;;;;;4934128;29;20213;-75
2023/03/10 11:43:26;;;;;;;0.80;0.80;;;10.20;99.90;;;;;;4934325;29;20236;-74
2023/03/10 11:45:59;;;;;;;1.30;1.00;;;10.00;99.90;;;;;;4933751;29;20214;-75
2023/03/10 11:48:46;;;;;;;1.93;1.20;;;9.80;99.90;;;;;;4934142;29;20209;-75
2023/03/10 11:51:19;;;;;;;2.17;1.03;;;9.60;99.90;;;;;;4938014;29;20208;-77
2023/03/10 11:53:50;;;;;;;1.83;0.87;;;9.40;99.90;;;;;;4937440;29;20517;-76
2023/03/10 11:56:20;;;;;;;1.50;0.70;;;9.40;99.90;;;;;;4937653;29;20240;-74
2023/03/10 11:58:51;;;;;;;1.30;0.80;;;9.20;99.90;;;;;;4949956;29;20685;-79
2023/03/10 12:01:23;;;;;;;1.40;0.90;;;9.10;99.90;;;;;;4939550;29;20228;-79
2023/03/10 12:03:58;;;;;;;1.73;0.80;;;9.10;99.90;;;;;;4937052;29;20240;-75
2023/03/10 12:06:32;;;;;;;1.00;0.60;;;9.00;99.90;;;;;;4937215;29;20212;-75
2023/03/10 12:09:01;;;;;;;2.10;1.03;;;9.00;99.90;;;;;;4936847;29;20211;-75
2023/03/10 12:11:30;;;;;;;3.00;1.00;;;9.00;99.90;;;;;;4955561;28;20603;-75
2023/03/10 12:13:59;;;;;;;1.80;0.93;;;8.80;99.90;;;;;;4956527;29;20215;-74
2023/03/10 12:16:30;;;;;;;1.63;0.73;;;8.70;99.90;;;;;;4958322;29;20232;-85
2023/03/10 12:18:57;;;;;;;1.47;1.30;;;8.80;99.90;;;;;;4957763;29;20651;-77
2023/03/10 12:21:26;;;;;;;0.70;0.70;;;8.80;99.90;;;;;;4957437;28;20612;-75
2023/03/10 12:23:55;;;;;;;1.00;0.90;;;8.70;99.90;;;;;;4957464;29;20215;-80
2023/03/10 12:27:03;;;;;;;1.20;0.90;;;8.80;99.90;;;;;;4957510;29;20215;-79
2023/03/10 12:29:37;;;;;;;0.80;0.77;;;8.70;99.90;;;;;;4958340;29;20218;-74
2023/03/10 12:32:26;;;;;;;1.43;1.17;;;8.70;99.90;;;;;;4958239;28;20223;-76
2023/03/10 12:35:23;;;;;;;1.63;1.10;;;8.70;99.90;;;;;;4957704;29;20207;-83
2023/03/10 12:37:50;;;;;;;2.47;1.00;;;8.80;99.90;;;;;;4957749;29;20208;-76
2023/03/10 12:40:48;;;;;;;1.73;1.20;;;8.80;99.90;;;;;;4957356;29;20212;-78
2023/03/10 12:44:02;;;;;;;0.97;0.87;;;8.70;99.90;;;;;;4957789;28;20228;-81
2023/03/10 12:46:44;;;;;;;1.60;1.30;;;8.70;99.90;;;;;;4957950;29;20216;-75
2023/03/10 12:49:31;;;;;;;1.17;0.90;;;8.60;99.90;;;;;;4944419;29;20207;-74
2023/03/10 12:52:17;;;;;;;2.93;1.10;;;8.50;99.90;;;;;;4936734;29;20254;-76
2023/03/10 12:55:02;;;;;;;1.20;1.03;;;8.60;99.90;;;;;;4937567;29;20201;-74
2023/03/10 12:57:34;;;;;;;1.77;1.27;;;8.70;99.90;;;;;;4938072;29;20212;-75
2023/03/10 13:00:05;;;;;;;2.63;1.20;;;8.70;99.90;;;;;;4937321;29;20656;-75
2023/03/10 13:02:38;;;;;;;2.00;0.70;;;8.60;99.90;;;;;;4938044;29;20711;-80
2023/03/10 13:05:17;;;;;;;3.27;1.00;;;8.60;99.90;;;;;;4937904;29;20685;-74
2023/03/10 13:07:47;;;;;;;1.00;0.80;;;8.60;99.90;;;;;;4937837;29;20208;-75
2023/03/10 13:10:18;;;;;;;0.83;0.50;;;8.70;99.90;;;;;;4938164;29;20213;-82
2023/03/10 13:12:49;;;;;;;1.13;0.90;;;8.70;99.90;;;;;;4937411;29;20223;-78
2023/03/10 13:15:22;;;;;;;1.53;0.80;;;8.80;99.90;;;;;;4937299;29;20201;-76
2023/03/10 13:17:49;;;;;;;0.80;0.63;;;8.70;99.90;;;;;;4937078;29;20205;-75
2023/03/10 13:20:18;;;;;;;0.60;0.50;;;8.60;99.90;;;;;;4936989;29;20573;-76
2023/03/10 13:22:55;;;;;;;1.30;0.70;;;8.50;99.90;;;;;;4937772;29;20815;-75
2023/03/10 13:25:23;;;;;;;1.77;0.77;;;8.50;99.90;;;;;;4933150;29;20817;-77
2023/03/10 13:27:51;;;;;;;0.87;0.60;;;8.40;99.90;;;;;;4952382;29;20295;-75
2023/03/10 13:30:20;;;;;;;1.00;0.70;;;8.30;99.90;;;;;;4952597;29;20219;-76
2023/03/10 13:32:55;;;;;;;1.20;0.70;;;8.30;99.90;;;;;;4954637;28;20244;-75
2023/03/10 13:35:25;;;;;;;1.13;0.60;;;8.10;99.90;;;;;;4947451;29;20208;-77
2023/03/10 13:38:07;;;;;;;1.33;0.60;;;8.00;99.90;;;;;;4936057;29;20219;-81
2023/03/10 13:40:34;;;;;;;1.60;0.70;;;8.00;99.90;;;;;;4945896;29;20210;-75
2023/03/10 13:43:01;;;;;;;1.07;0.93;;;7.80;99.90;;;;;;4954445;28;20228;-74
2023/03/10 13:45:32;;;;;;;2.80;0.90;;;7.70;99.90;;;;;;4946258;29;20247;-74
2023/03/10 13:48:02;;;;;;;1.93;1.17;;;7.70;99.90;;;;;;4935667;29;20240;-75
2023/03/10 13:50:31;;;;;;;1.73;1.10;;;7.60;99.90;;;;;;4935855;29;20204;-87
2023/03/10 13:52:58;;;;;;;1.73;1.10;;;7.60;99.90;;;;;;4935559;29;20221;-75
2023/03/10 13:55:27;;;;;;;2.17;1.10;;;7.60;99.90;;;;;;4934192;29;20213;-75
2023/03/10 13:57:55;;;;;;;3.03;1.50;;;7.60;99.90;;;;;;4935406;29;20252;-74
2023/03/10 14:00:25;;;;;;;1.47;1.00;;;7.50;99.90;;;;;;4935234;29;20716;-75
2023/03/10 14:02:53;;;;;;;1.67;1.40;;;7.50;99.90;;;;;;4934811;29;20320;-73
2023/03/10 14:05:44;;;;;;;1.77;1.37;;;7.50;99.90;;;;;;4935701;29;20216;-72
2023/03/10 14:08:20;;;;;;;1.10;1.00;;;7.50;99.90;;;;;;4935595;29;20220;-74
2023/03/10 14:10:47;;;;;;;1.57;1.10;;;7.40;99.90;;;;;;4935217;29;20208;-74
2023/03/10 14:13:42;;;;;;;1.10;0.80;;;7.10;99.90;;;;;;4934431;29;20235;-74
2023/03/10 14:16:10;;;;;;;0.70;0.60;;;6.80;99.90;;;;;;4935306;29;20597;-72
2023/03/10 14:18:38;;;;;;;0.73;0.67;;;6.50;99.90;;;;;;4935078;29;20215;-72
2023/03/10 14:21:30;;;;;;;0.57;0.50;;;6.20;99.90;;;;;;4935017;29;20669;-72
2023/03/10 14:24:03;;;;;;;1.93;0.50;;;6.00;99.90;;;;;;4934727;29;20221;-73
2023/03/10 14:26:31;;;;;;;1.07;0.77;;;5.80;99.90;;;;;;4934873;29;20224;-72
2023/03/10 14:28:59;;;;;;;0.70;0.70;;;5.50;99.90;;;;;;4934806;29;20716;-72
2023/03/10 14:31:26;;;;;;;1.30;0.60;;;5.40;99.90;;;;;;4929380;29;20243;-74
2023/03/10 14:33:53;;;;;;;1.07;0.80;;;5.20;99.90;;;;;;4935595;29;20745;-73
2023/03/10 14:36:20;;;;;;;2.00;1.23;;;5.00;99.90;;;;;;4941124;29;20236;-72
2023/03/10 14:38:48;;;;;;;2.43;1.57;;;4.80;99.90;;;;;;4955796;29;20204;-73
2023/03/10 14:41:17;;;;;;;15.70;1.67;;;4.60;99.90;;;;;;4939771;29;20205;-73
2023/03/10 14:43:44;;;;;;;3.83;1.47;;;4.40;99.90;;;;;;4935866;29;20563;-72
2023/03/10 14:46:12;;;;;;;3.03;1.27;;;4.30;99.90;;;;;;4935907;29;20239;-73
2023/03/10 14:48:40;;;;;;;1.63;0.70;;;4.20;99.90;;;;;;4935903;29;20209;-73
2023/03/10 14:51:11;;;;;;;1.57;0.93;;;4.10;99.90;;;;;;4932909;29;20208;-72
2023/03/10 14:53:38;;;;;;;1.23;0.90;;;3.90;99.90;;;;;;4935659;29;20612;-76
2023/03/10 14:56:11;;;;;;;1.23;0.90;;;3.80;99.90;;;;;;4935696;29;20237;-73
2023/03/10 14:58:45;;;;;;;1.20;0.77;;;3.80;99.90;;;;;;4935775;29;20209;-71
2023/03/10 15:01:11;;;;;;;1.87;1.00;;;3.80;99.90;;;;;;4935523;29;20687;-72
2023/03/10 15:03:38;;;;;;;1.90;0.80;;;3.70;99.90;;;;;;4936157;29;20217;-72
2023/03/10 15:06:05;;;;;;;0.90;0.70;;;3.80;99.90;;;;;;4936660;29;20231;-72
2023/03/10 15:08:32;;;;;;;1.57;0.80;;;3.80;99.90;;;;;;4936002;29;20593;-73
2023/03/10 15:10:59;;;;;;;1.30;0.83;;;3.80;99.90;;;;;;4935557;29;20213;-74
2023/03/10 15:13:27;;;;;;;3.40;0.87;;;3.70;99.90;;;;;;4935691;29;20378;-73
2023/03/10 15:15:54;;;;;;;2.73;1.30;;;3.60;99.90;;;;;;4936074;29;20231;-72
2023/03/10 15:18:22;;;;;;;2.53;1.23;;;3.60;99.90;;;;;;4935951;29;20204;-72
2023/03/10 15:20:49;;;;;;;2.80;1.53;;;3.60;99.90;;;;;;4935741;29;20223;-72
2023/03/10 15:23:16;;;;;;;2.17;1.10;;;3.60;99.90;;;;;;4935493;29;20229;-73
2023/03/10 15:25:44;;;;;;;2.13;1.17;;;3.50;99.90;;;;;;4947908;29;20299;-72
2023/03/10 15:28:11;;;;;;;2.30;1.20;;;3.50;99.90;;;;;;4946841;29;20213;-72
2023/03/10 15:30:39;;;;;;;3.07;1.30;;;3.50;99.90;;;;;;4935659;29;20213;-73
2023/03/10 15:33:06;;;;;;;1.93;1.03;;;3.60;99.90;;;;;;4935863;29;20229;-75
2023/03/10 15:35:34;;;;;;;2.30;1.20;;;3.50;99.90;;;;;;4935789;29;20235;-74
2023/03/10 15:38:01;;;;;;;2.27;1.10;;;3.60;99.90;;;;;;4934665;29;20236;-73
2023/03/10 15:40:31;;;;;;;2.00;1.10;;;3.50;99.90;;;;;;4934623;29;20723;-73
2023/03/10 15:42:58;;;;;;;2.37;1.00;;;3.50;99.90;;;;;;4934507;29;20224;-73
2023/03/10 15:45:27;;;;;;;2.60;1.03;;;3.60;99.90;;;;;;4935171;29;20296;-72
2023/03/10 15:47:55;;;;;;;3.23;1.20;;;3.60;99.90;;;;;;4934710;29;20225;-73
2023/03/10 15:50:23;;;;;;;1.07;0.80;;;3.50;99.90;;;;;;4935168;29;20208;-73
2023/03/10 15:52:54;;;;;;;17.77;1.03;;;3.30;99.90;;;;;;4935428;29;20235;-74
2023/03/10 15:55:21;;;;;;;0.87;0.80;;;3.10;99.90;;;;;;4935489;29;20209;-75
2023/03/10 15:57:48;;;;;;;6.33;1.37;;;3.00;99.90;;;;;;4935313;29;20342;-73
2023/03/10 16:00:17;;;;;;;2.17;1.10;;;3.00;99.90;;;;;;4935547;29;20314;-75
2023/03/10 16:02:43;;;;;;;2.20;1.20;;;3.10;99.90;;;;;;4935107;29;20233;-73
2023/03/10 16:05:12;;;;;;;3.70;0.80;;;3.20;99.90;;;;;;4935233;29;20217;-73
2023/03/10 16:07:39;;;;;;;3.17;0.63;;;3.30;99.90;;;;;;4935176;29;20209;-75
2023/03/10 16:10:08;;;;;;;0.70;0.47;;;3.30;99.90;;;;;;4935484;29;20213;-73
2023/03/10 16:12:35;;;;;;;2.40;0.70;;;3.30;99.90;;;;;;4935284;29;20239;-71
2023/03/10 16:15:02;;;;;;;1.00;0.60;;;3.20;99.90;;;;;;4935449;29;20660;-73
2023/03/10 16:17:29;;;;;;;0.80;0.50;;;3.30;99.90;;;;;;4935154;29;20263;-73
2023/03/10 16:19:59;;;;;;;1.73;0.40;;;3.20;99.90;;;;;;4935317;29;20288;-72
2023/03/10 16:22:27;;;;;;;1.60;0.63;;;3.20;99.90;;;;;;4935404;29;20240;-72
2023/03/10 16:24:54;;;;;;;4.07;0.40;;;3.20;99.90;;;;;;4935184;29;20209;-73
2023/03/10 16:27:20;;;;;;;0.37;0.23;;;3.20;99.90;;;;;;4935247;29;20220;-72
2023/03/10 16:29:48;;;;;;;1.03;0.20;;;3.20;99.90;;;;;;4935145;29;20222;-72
2023/03/10 16:32:16;;;;;;;5.00;0.50;;;3.20;99.90;;;;;;4930794;29;20635;-73
2023/03/10 16:34:43;;;;;;;0.20;0.13;;;3.20;99.90;;;;;;4933942;29;20738;-74
2023/03/10 16:37:10;;;;;;;1.90;0.83;;;3.30;99.90;;;;;;4937218;29;20687;-73
2023/03/10 16:39:38;;;;;;;5.07;0.60;;;3.20;99.90;;;;;;4938087;29;20219;-74
2023/03/10 16:42:05;;;;;;;2.47;0.80;;;3.30;99.90;;;;;;4939110;29;20263;-74
2023/03/10 16:44:32;;;;;;;1.07;0.40;;;3.20;99.90;;;;;;4938247;29;20205;-74
2023/03/10 16:46:58;;;;;;;1.30;0.40;;;3.30;99.90;;;;;;4938237;29;20227;-70
2023/03/10 16:49:25;;;;;;;1.13;0.50;;;3.40;99.90;;;;;;4938060;29;20232;-74
2023/03/10 16:51:52;;;;;;;3.73;1.10;;;3.50;99.90;;;;;;4937931;29;20315;-75
2023/03/10 16:54:20;;;;;;;1.00;0.40;;;3.60;99.90;;;;;;4937976;29;20563;-74
2023/03/10 16:56:50;;;;;;;0.70;0.50;;;3.60;99.90;;;;;;4937904;29;20243;-74
2023/03/10 16:59:19;;;;;;;7.03;0.70;;;3.70;99.90;;;;;;4937965;29;20247;-74
2023/03/10 17:01:47;;;;;;;3.13;0.30;;;3.70;99.90;;;;;;4938217;29;20232;-74
2023/03/10 17:04:14;;;;;;;3.70;0.70;;;3.70;99.90;;;;;;4937412;29;20200;-74
2023/03/10 17:06:41;;;;;;;0.90;0.40;;;3.70;99.90;;;;;;4937358;29;20193;-74
2023/03/10 17:09:09;;;;;;;1.60;0.80;;;3.70;99.90;;;;;;4937951;29;20204;-73
2023/03/10 17:11:38;;;;;;;3.13;0.57;;;3.70;99.90;;;;;;4937807;29;20251;-75
2023/03/10 17:14:10;;;;;;;4.80;0.70;;;3.70;99.90;;;;;;4937731;29;20225;-75
2023/03/10 17:16:37;;;;;;;1.43;0.70;;;3.80;99.90;;;;;;4937729;29;20216;-75
2023/03/10 17:19:05;;;;;;;1.13;0.50;;;3.80;99.90;;;;;;4937661;29;20219;-72
2023/03/10 17:21:34;;;;;;;1.20;0.47;;;4.00;99.90;;;;;;4937556;29;20229;-73
2023/03/10 17:24:02;;;;;;;2.10;0.80;;;3.90;99.90;;;;;;4937882;29;20209;-73
2023/03/10 17:26:28;;;;;;;3.33;1.50;;;4.00;99.90;;;;;;4936962;29;20200;-73
2023/03/10 17:28:55;;;;;;;2.30;0.80;;;4.10;99.90;;;;;;4937211;29;20201;-74
2023/03/10 17:31:28;;;;;;;1.30;0.83;;;4.10;99.90;;;;;;4936976;29;20216;-74
2023/03/10 17:33:56;;;;;;;2.60;1.53;;;4.10;99.90;;;;;;4937080;29;20240;-72
2023/03/10 17:36:24;;;;;;;1.07;0.80;;;4.00;99.90;;;;;;4936650;29;20293;-73
2023/03/10 17:38:52;;;;;;;1.63;0.60;;;3.90;99.90;;;;;;4937096;29;20595;-72
2023/03/10 17:41:20;;;;;;;1.43;0.67;;;3.90;99.90;;;;;;4936881;29;20221;-73
2023/03/10 17:43:47;;;;;;;3.43;1.47;;;3.90;99.90;;;;;;4933860;29;20208;-73
2023/03/10 17:46:15;;;;;;;1.57;0.70;;;3.80;99.90;;;;;;4936204;29;20205;-73
2023/03/10 17:48:44;;;;;;;2.13;0.50;;;3.70;99.90;;;;;;4936201;29;20201;-73
2023/03/10 17:51:15;;;;;;;1.60;0.60;;;3.60;99.90;;;;;;4936267;29;20207;-73
2023/03/10 17:53:42;;;;;;;2.30;0.53;;;3.40;99.90;;;;;;4936400;29;20222;-73
2023/03/10 17:56:09;;;;;;;24.40;1.43;;;3.40;99.90;;;;;;4936575;29;20208;-73
2023/03/10 17:58:36;;;;;;;4.63;0.70;;;3.40;99.90;;;;;;4936330;29;20224;-72
2023/03/10 18:01:07;;;;;;;25.10;0.90;;;3.40;99.90;;;;;;4936404;29;20232;-72
2023/03/10 18:03:35;;;;;;;1.20;0.60;;;3.40;99.90;;;;;;4936101;29;20201;-72
2023/03/10 18:06:04;;;;;;;1.00;0.40;;;3.30;99.90;;;;;;4935884;29;20217;-74
2023/03/10 18:08:31;;;;;;;1.37;0.77;;;3.40;99.90;;;;;;4936109;29;20213;-72
2023/03/10 18:11:02;;;;;;;5.13;0.83;;;3.40;99.90;;;;;;4936396;29;20209;-72
2023/03/10 18:13:29;;;;;;;1.70;0.77;;;3.40;99.90;;;;;;4936465;29;20213;-73
2023/03/10 18:15:56;;;;;;;4.53;1.80;;;3.50;99.90;;;;;;4936136;29;20201;-72
2023/03/10 18:18:23;;;;;;;3.20;0.80;;;3.60;99.90;;;;;;4935836;29;20236;-72
2023/03/10 18:20:50;;;;;;;3.77;0.80;;;3.50;99.90;;;;;;4936132;29;20219;-72
2023/03/10 18:23:20;;;;;;;4.90;1.50;;;3.40;99.90;;;;;;4936155;29;20232;-72
2023/03/10 18:25:47;;;;;;;2.37;0.57;;;3.40;99.90;;;;;;4936630;29;20209;-72
2023/03/10 18:28:17;;;;;;;9.07;0.90;;;3.40;99.90;;;;;;4936341;29;20211;-72
2023/03/10 18:30:46;;;;;;;2.23;0.43;;;3.30;99.90;;;;;;4936112;29;20639;-72
2023/03/10 18:33:14;;;;;;;4.80;0.67;;;3.20;99.90;;;;;;4935806;29;20237;-72
2023/03/10 18:35:42;;;;;;;1.47;0.90;;;3.20;99.90;;;;;;4935509;29;20213;-72
2023/03/10 18:38:11;;;;;;;3.43;0.70;;;3.20;99.90;;;;;;4935699;29;20225;-73
2023/03/10 18:40:40;;;;;;;3.33;0.80;;;3.20;99.90;;;;;;4936099;29;20212;-73
2023/03/10 18:43:07;;;;;;;2.77;0.80;;;3.10;99.90;;;;;;4935858;29;20235;-72
2023/03/10 18:45:33;;;;;;;1.80;0.77;;;3.10;99.90;;;;;;4936084;29;20231;-73
2023/03/10 18:48:00;;;;;;;6.53;0.73;;;3.10;99.90;;;;;;4935620;29;20209;-72
2023/03/10 18:50:27;;;;;;;2.43;0.63;;;3.20;99.90;;;;;;4936188;29;20219;-72
2023/03/10 18:52:54;;;;;;;1.53;0.43;;;3.20;99.90;;;;;;4935905;29;20225;-73
2023/03/10 18:55:21;;;;;;;1.57;0.80;;;3.20;99.90;;;;;;4935501;29;20576;-74
2023/03/10 18:57:49;;;;;;;2.17;0.90;;;3.20;99.90;;;;;;4935279;29;20232;-72
2023/03/10 19:00:17;;;;;;;3.80;0.60;;;3.20;99.90;;;;;;4935316;29;20217;-73
2023/03/10 19:02:44;;;;;;;3.00;0.70;;;3.20;99.90;;;;;;4935633;29;20320;-73
2023/03/10 19:05:13;;;;;;;4.70;0.50;;;3.10;99.90;;;;;;4935263;29;20221;-73
2023/03/10 19:07:40;;;;;;;4.57;0.50;;;3.10;99.90;;;;;;4935463;29;20212;-72
2023/03/10 19:10:08;;;;;;;2.73;0.50;;;3.20;99.90;;;;;;4935779;29;20300;-73
2023/03/10 19:12:35;;;;;;;1.60;0.50;;;3.30;99.90;;;;;;4935471;29;20684;-72
2023/03/10 19:15:05;;;;;;;3.87;0.60;;;3.40;99.90;;;;;;4934977;29;20211;-73
2023/03/10 19:17:32;;;;;;;2.77;0.77;;;3.40;99.90;;;;;;4935358;29;20235;-72
2023/03/10 19:19:59;;;;;;;8.87;1.13;;;3.50;99.90;;;;;;4935282;29;20312;-73
2023/03/10 19:22:27;;;;;;;1.57;0.63;;;3.60;99.90;;;;;;4935205;29;20225;-73
2023/03/10 19:24:54;;;;;;;2.57;0.70;;;3.70;99.90;;;;;;4935256;29;20212;-73
2023/03/10 19:27:21;;;;;;;5.30;0.83;;;3.70;99.90;;;;;;4935068;29;20652;-72
2023/03/10 19:29:51;;;;;;;1.43;0.80;;;3.80;99.90;;;;;;4935034;29;20565;-73
2023/03/10 19:32:19;;;;;;;8.87;1.20;;;3.80;99.90;;;;;;4935276;29;20283;-73
2023/03/10 19:34:47;;;;;;;4.60;1.60;;;3.60;99.90;;;;;;4927938;29;20209;-76
2023/03/10 19:37:14;;;;;;;5.77;1.40;;;3.50;99.90;;;;;;4934276;29;20213;-76
2023/03/10 19:39:41;;;;;;;2.90;0.83;;;3.50;99.90;;;;;;4933798;29;20299;-75
2023/03/10 19:42:08;;;;;;;6.20;0.80;;;3.40;99.90;;;;;;4951951;28;20224;-76
2023/03/10 19:44:37;;;;;;;4.60;1.07;;;3.30;99.90;;;;;;4944757;29;20303;-71
2023/03/10 19:47:04;;;;;;;6.70;1.00;;;3.40;99.90;;;;;;4933581;29;20208;-70
2023/03/10 19:49:32;;;;;;;7.87;1.40;;;3.20;99.90;;;;;;4934782;29;20576;-69
2023/03/10 19:52:00;;;;;;;5.97;1.03;;;3.20;99.90;;;;;;4934872;29;20217;-74
2023/03/10 19:54:27;;;;;;;2.67;0.93;;;3.10;99.90;;;;;;4934451;29;20200;-69
2023/03/10 19:56:53;;;;;;;0.67;0.57;;;3.10;99.90;;;;;;4934852;29;20228;-70
2023/03/10 19:59:20;;;;;;;1.90;0.90;;;3.00;99.90;;;;;;4934696;29;20351;-71
2023/03/10 20:01:50;;;;;;;4.17;0.70;;;2.90;99.90;;;;;;4934753;29;20256;-70
2023/03/10 20:04:17;;;;;;;1.47;0.83;;;2.90;99.90;;;;;;4934936;29;20644;-70
2023/03/10 20:06:45;;;;;;;6.20;1.00;;;2.90;99.90;;;;;;4934895;29;20205;-69
2023/03/10 20:09:12;;;;;;;7.43;1.10;;;2.80;99.90;;;;;;4935334;29;20209;-70
2023/03/10 20:11:40;;;;;;;10.50;1.90;;;2.80;99.90;;;;;;4939134;29;20243;-70
2023/03/10 20:14:07;;;;;;;4.53;1.00;;;2.80;99.90;;;;;;4938951;29;20579;-71
2023/03/10 20:16:36;;;;;;;2.80;0.60;;;2.80;99.90;;;;;;4939318;29;20244;-69
2023/03/10 20:19:02;;;;;;;1.00;0.50;;;2.80;99.90;;;;;;4939190;29;20236;-70
2023/03/10 20:21:29;;;;;;;5.17;0.90;;;2.70;99.90;;;;;;4938766;29;20750;-70
2023/03/10 20:23:57;;;;;;;1.63;0.90;;;2.70;99.90;;;;;;4938950;29;20208;-71
2023/03/10 20:26:24;;;;;;;2.43;0.70;;;2.70;99.90;;;;;;4939104;29;20208;-69
2023/03/10 20:28:51;;;;;;;2.60;0.87;;;2.70;99.90;;;;;;4939048;29;20252;-70
2023/03/10 20:31:20;;;;;;;1.40;0.80;;;2.60;99.90;;;;;;4939022;29;20209;-70
2023/03/10 20:33:48;;;;;;;5.00;1.30;;;2.60;99.90;;;;;;4938985;29;20213;-71
2023/03/10 20:36:15;;;;;;;8.07;1.53;;;2.60;99.90;;;;;;4938663;29;20212;-70
2023/03/10 20:38:42;;;;;;;3.67;0.90;;;2.60;99.90;;;;;;4938407;29;20284;-70
2023/03/10 20:41:12;;;;;;;4.07;0.90;;;2.50;99.90;;;;;;4938308;29;20244;-70
2023/03/10 20:43:39;;;;;;;1.90;0.77;;;2.50;99.90;;;;;;4938455;29;20213;-70
2023/03/10 20:46:06;;;;;;;7.30;1.10;;;2.60;99.90;;;;;;4937879;29;20660;-70
2023/03/10 20:48:33;;;;;;;1.50;0.73;;;2.60;99.90;;;;;;4937936;29;20209;-70
2023/03/10 20:51:00;;;;;;;1.23;0.57;;;2.60;99.90;;;;;;4937940;29;20209;-70
2023/03/10 20:53:28;;;;;;;3.37;0.70;;;2.50;99.90;;;;;;4938334;29;20205;-70
2023/03/10 20:55:54;;;;;;;2.00;0.87;;;2.50;99.90;;;;;;4938096;29;20205;-70
2023/03/10 20:58:23;;;;;;;4.20;0.70;;;2.70;99.90;;;;;;4938219;29;20324;-71
2023/03/10 21:00:49;;;;;;;2.03;0.70;;;2.70;99.90;;;;;;4937734;29;20209;-70
2023/03/10 21:03:16;;;;;;;3.33;1.30;;;2.80;99.90;;;;;;4937599;29;20588;-70
2023/03/10 21:05:43;;;;;;;2.53;0.83;;;2.80;99.90;;;;;;4938116;29;20217;-69
2023/03/10 21:08:10;;;;;;;3.67;1.10;;;2.90;99.90;;;;;;4937798;29;20264;-70
2023/03/10 21:10:37;;;;;;;4.63;1.33;;;3.00;99.90;;;;;;4937756;29;20204;-70
2023/03/10 21:13:04;;;;;;;1.93;1.13;;;3.10;99.90;;;;;;4937769;29;20225;-70
2023/03/10 21:15:32;;;;;;;3.87;1.00;;;3.20;99.90;;;;;;4937792;29;20208;-70
2023/03/10 21:17:59;;;;;;;5.33;1.20;;;3.30;99.90;;;;;;4937617;29;20687;-71
2023/03/10 21:20:25;;;;;;;4.37;1.40;;;3.30;99.90;;;;;;4937782;29;20691;-69
2023/03/10 21:22:52;;;;;;;2.23;1.03;;;3.30;99.90;;;;;;4936985;29;20604;-70
2023/03/10 21:25:22;;;;;;;2.03;1.10;;;3.30;99.90;;;;;;4937695;29;20219;-70
2023/03/10 21:27:51;;;;;;;3.07;1.30;;;3.40;99.90;;;;;;4936222;29;20209;-70
2023/03/10 21:30:20;;;;;;;6.07;0.60;;;3.40;99.90;;;;;;4937618;29;20621;-69
2023/03/10 21:32:48;;;;;;;4.27;1.33;;;3.40;99.90;;;;;;4937768;29;20264;-70
2023/03/10 21:35:15;;;;;;;8.60;1.40;;;3.40;99.90;;;;;;4937823;29;20209;-70
2023/03/10 21:37:45;;;;;;;2.37;0.93;;;3.40;99.90;;;;;;4936615;29;20213;-69
2023/03/10 21:40:16;;;;;;;3.23;1.20;;;3.40;99.90;;;;;;4936886;29;20979;-70
2023/03/10 21:42:43;;;;;;;2.20;0.80;;;3.30;99.90;;;;;;4936744;29;20236;-70
2023/03/10 21:45:14;;;;;;;4.50;1.03;;;3.40;99.90;;;;;;4937514;29;20332;-70
2023/03/10 21:47:40;;;;;;;5.77;1.30;;;3.50;99.90;;;;;;4937310;29;20205;-70
2023/03/10 21:50:11;;;;;;;4.00;0.80;;;3.40;99.90;;;;;;4937124;29;20217;-70
2023/03/10 21:52:38;;;;;;;2.97;0.90;;;3.40;99.90;;;;;;4936778;29;20367;-70
2023/03/10 21:55:07;;;;;;;1.80;0.67;;;3.30;99.90;;;;;;4935826;29;20209;-69
2023/03/10 21:57:34;;;;;;;2.03;0.90;;;3.40;99.90;;;;;;4936054;29;20224;-70
2023/03/10 22:00:01;;;;;;;4.17;1.03;;;3.40;99.90;;;;;;4936718;29;20237;-71
2023/03/10 22:02:29;;;;;;;4.03;0.90;;;3.40;99.90;;;;;;4936829;29;20600;-73
2023/03/10 22:04:57;;;;;;;5.23;0.70;;;3.40;99.90;;;;;;4936230;29;20219;-70
2023/03/10 22:07:25;;;;;;;4.47;0.80;;;3.40;99.90;;;;;;4936241;29;20208;-70
2023/03/10 22:09:52;;;;;;;0.97;0.60;;;3.40;99.90;;;;;;4936525;29;20567;-69
2023/03/10 22:12:19;;;;;;;2.93;0.77;;;3.30;99.90;;;;;;4935913;29;20224;-70
2023/03/10 22:14:46;;;;;;;6.47;0.90;;;3.20;99.90;;;;;;4936314;29;20292;-70